createdAt,value
2017-10-16T00:00:31.570Z,1011.55
2017-10-16T00:01:32.995Z,1011.57
2017-10-16T00:02:34.415Z,1011.59
2017-10-16T00:03:35.835Z,1011.52
2017-10-16T00:04:37.253Z,1011.49
2017-10-16T00:05:38.685Z,1011.54
2017-10-16T00:06:40.144Z,1011.48
2017-10-16T00:07:41.575Z,1011.52
2017-10-16T00:08:42.988Z,1011.49
2017-10-16T00:09:44.410Z,1011.46
2017-10-16T00:10:45.835Z,1011.45
2017-10-16T00:11:47.259Z,1011.46
2017-10-16T00:12:48.671Z,1011.41
2017-10-16T00:13:50.090Z,1011.46
2017-10-16T00:14:51.512Z,1011.45
2017-10-16T00:15:52.936Z,1011.42
2017-10-16T00:16:54.364Z,1011.43
2017-10-16T00:17:55.782Z,1011.41
2017-10-16T00:18:57.200Z,1011.41
2017-10-16T00:19:58.625Z,1011.40
2017-10-16T00:21:00.048Z,1011.44
2017-10-16T00:22:01.467Z,1011.42
2017-10-16T00:23:02.882Z,1011.45
2017-10-16T00:24:04.317Z,1011.42
2017-10-16T00:25:05.735Z,1011.42
2017-10-16T00:26:07.148Z,1011.40
2017-10-16T00:27:08.568Z,1011.42
2017-10-16T00:28:09.998Z,1011.41
2017-10-16T00:29:11.422Z,1011.39
2017-10-16T00:30:12.882Z,1011.37
2017-10-16T00:31:14.296Z,1011.37
2017-10-16T00:32:15.776Z,1011.32
2017-10-16T00:33:17.197Z,1011.33
2017-10-16T00:34:18.622Z,1011.37
2017-10-16T00:35:20.045Z,1011.37
2017-10-16T00:36:21.456Z,1011.37
2017-10-16T00:37:22.877Z,1011.40
2017-10-16T00:38:24.300Z,1011.41
2017-10-16T00:39:25.721Z,1011.39
2017-10-16T00:40:27.141Z,1011.37
2017-10-16T00:41:28.560Z,1011.40
2017-10-16T00:42:29.981Z,1011.42
2017-10-16T00:43:31.397Z,1011.42
2017-10-16T00:44:32.824Z,1011.39
2017-10-16T00:45:34.249Z,1011.44
2017-10-16T00:46:35.662Z,1011.43
2017-10-16T00:47:37.083Z,1011.36
2017-10-16T00:48:38.516Z,1011.41
2017-10-16T00:49:39.946Z,1011.36
2017-10-16T00:50:41.365Z,1011.40
2017-10-16T00:51:42.782Z,1011.32
2017-10-16T00:52:44.207Z,1011.37
2017-10-16T00:53:45.624Z,1011.40
2017-10-16T00:54:47.051Z,1011.41
2017-10-16T00:55:48.475Z,1011.37
2017-10-16T00:56:49.890Z,1011.39
2017-10-16T00:57:51.310Z,1011.40
2017-10-16T00:58:52.728Z,1011.44
2017-10-16T00:59:54.149Z,1011.40
2017-10-16T01:00:55.571Z,1011.41
2017-10-16T01:01:56.994Z,1011.40
2017-10-16T01:02:58.414Z,1011.40
2017-10-16T01:03:59.834Z,1011.36
2017-10-16T01:05:01.279Z,1011.36
2017-10-16T01:06:02.701Z,1011.35
2017-10-16T01:07:04.122Z,1011.34
2017-10-16T01:08:05.549Z,1011.36
2017-10-16T01:09:06.978Z,1011.33
2017-10-16T01:10:08.408Z,1011.31
2017-10-16T01:11:09.826Z,1011.34
2017-10-16T01:12:11.349Z,1011.32
2017-10-16T01:13:12.764Z,1011.29
2017-10-16T01:14:14.260Z,1011.29
2017-10-16T01:15:15.872Z,1011.29
2017-10-16T01:16:17.364Z,1011.26
2017-10-16T01:17:18.787Z,1011.28
2017-10-16T01:18:20.209Z,1011.28
2017-10-16T01:19:21.706Z,1011.29
2017-10-16T01:20:23.127Z,1011.29
2017-10-16T01:21:24.601Z,1011.31
2017-10-16T01:22:26.030Z,1011.30
2017-10-16T01:23:27.459Z,1011.23
2017-10-16T01:24:28.874Z,1011.26
2017-10-16T01:25:30.296Z,1011.24
2017-10-16T01:26:31.715Z,1011.25
2017-10-16T01:27:33.135Z,1011.25
2017-10-16T01:28:34.556Z,1011.25
2017-10-16T01:29:35.970Z,1011.23
2017-10-16T01:30:37.389Z,1011.22
2017-10-16T01:31:38.816Z,1011.23
2017-10-16T01:32:40.234Z,1011.21
2017-10-16T01:33:41.654Z,1011.20
2017-10-16T01:34:43.078Z,1011.17
2017-10-16T01:35:44.492Z,1011.22
2017-10-16T01:36:45.918Z,1011.12
2017-10-16T01:37:47.346Z,1011.16
2017-10-16T01:38:48.766Z,1011.14
2017-10-16T01:39:50.184Z,1011.18
2017-10-16T01:40:51.606Z,1011.15
2017-10-16T01:41:53.024Z,1011.11
2017-10-16T01:42:54.445Z,1011.16
2017-10-16T01:43:56.793Z,1011.13
2017-10-16T01:44:58.217Z,1011.14
2017-10-16T01:45:59.640Z,1011.09
2017-10-16T01:47:01.053Z,1011.11
2017-10-16T01:48:02.529Z,1011.11
2017-10-16T01:49:03.947Z,1011.14
2017-10-16T01:50:05.365Z,1011.10
2017-10-16T01:51:06.843Z,1011.09
2017-10-16T01:52:08.266Z,1011.08
2017-10-16T01:53:09.695Z,1011.10
2017-10-16T01:54:11.116Z,1011.05
2017-10-16T01:55:12.535Z,1011.06
2017-10-16T01:56:13.954Z,1011.08
2017-10-16T01:57:15.370Z,1011.03
2017-10-16T01:58:16.797Z,1011.05
2017-10-16T01:59:18.212Z,1011.02
2017-10-16T02:00:19.631Z,1011.08
2017-10-16T02:01:21.055Z,1011.05
2017-10-16T02:02:22.474Z,1011.05
2017-10-16T02:03:23.892Z,1011.03
2017-10-16T02:04:25.306Z,1010.98
2017-10-16T02:05:26.724Z,1011.00
2017-10-16T02:06:28.144Z,1010.97
2017-10-16T02:07:29.566Z,1010.98
2017-10-16T02:08:30.985Z,1010.95
2017-10-16T02:09:32.411Z,1010.96
2017-10-16T02:10:33.835Z,1010.91
2017-10-16T02:11:35.258Z,1010.91
2017-10-16T02:12:36.680Z,1010.94
2017-10-16T02:13:38.093Z,1010.95
2017-10-16T02:14:39.518Z,1010.95
2017-10-16T02:15:40.938Z,1010.96
2017-10-16T02:16:42.367Z,1010.97
2017-10-16T02:17:43.789Z,1010.95
2017-10-16T02:18:45.231Z,1010.94
2017-10-16T02:19:46.655Z,1010.96
2017-10-16T02:20:48.079Z,1010.94
2017-10-16T02:21:49.505Z,1010.97
2017-10-16T02:22:50.920Z,1010.96
2017-10-16T02:23:52.337Z,1010.95
2017-10-16T02:24:53.758Z,1010.99
2017-10-16T02:25:55.182Z,1010.96
2017-10-16T02:26:56.600Z,1010.99
2017-10-16T02:27:58.017Z,1010.95
2017-10-16T02:28:59.435Z,1010.96
2017-10-16T02:30:00.862Z,1011.00
2017-10-16T02:31:02.282Z,1010.96
2017-10-16T02:32:03.695Z,1010.95
2017-10-16T02:33:05.118Z,1010.89
2017-10-16T02:34:06.533Z,1010.93
2017-10-16T02:35:07.959Z,1010.91
2017-10-16T02:36:09.376Z,1010.89
2017-10-16T02:37:10.797Z,1010.87
2017-10-16T02:38:12.214Z,1010.87
2017-10-16T02:39:13.633Z,1010.84
2017-10-16T02:40:15.049Z,1010.77
2017-10-16T02:41:16.470Z,1010.81
2017-10-16T02:42:17.902Z,1010.84
2017-10-16T02:43:19.321Z,1010.78
2017-10-16T02:44:20.756Z,1010.78
2017-10-16T02:45:22.183Z,1010.79
2017-10-16T02:46:23.602Z,1010.76
2017-10-16T02:47:25.029Z,1010.79
2017-10-16T02:48:26.452Z,1010.85
2017-10-16T02:49:27.871Z,1010.83
2017-10-16T02:50:29.315Z,1010.77
2017-10-16T02:51:30.695Z,1010.80
2017-10-16T02:52:32.112Z,1010.77
2017-10-16T02:53:33.539Z,1010.77
2017-10-16T02:54:34.957Z,1010.78
2017-10-16T02:55:36.373Z,1010.82
2017-10-16T02:56:37.796Z,1010.81
2017-10-16T02:57:39.216Z,1010.82
2017-10-16T02:58:40.633Z,1010.79
2017-10-16T02:59:42.050Z,1010.82
2017-10-16T03:00:43.490Z,1010.79
2017-10-16T03:01:44.882Z,1010.83
2017-10-16T03:02:46.310Z,1010.78
2017-10-16T03:03:47.728Z,1010.85
2017-10-16T03:04:49.153Z,1010.83
2017-10-16T03:05:50.573Z,1010.85
2017-10-16T03:06:51.994Z,1010.89
2017-10-16T03:07:53.411Z,1010.89
2017-10-16T03:08:54.829Z,1010.86
2017-10-16T03:09:56.253Z,1010.89
2017-10-16T03:10:57.673Z,1010.86
2017-10-16T03:11:59.089Z,1010.87
2017-10-16T03:13:00.506Z,1010.95
2017-10-16T03:14:01.932Z,1010.88
2017-10-16T03:15:03.356Z,1010.95
2017-10-16T03:16:04.814Z,1010.93
2017-10-16T03:17:06.239Z,1010.98
2017-10-16T03:18:07.663Z,1010.94
2017-10-16T03:19:09.089Z,1010.95
2017-10-16T03:20:10.513Z,1010.91
2017-10-16T03:21:11.938Z,1010.95
2017-10-16T03:22:13.353Z,1010.96
2017-10-16T03:23:14.767Z,1010.95
2017-10-16T03:24:16.190Z,1010.92
2017-10-16T03:25:17.602Z,1010.90
2017-10-16T03:26:19.028Z,1010.90
2017-10-16T03:27:20.448Z,1010.90
2017-10-16T03:28:21.866Z,1010.89
2017-10-16T03:29:23.290Z,1010.89
2017-10-16T03:30:25.323Z,1010.89
2017-10-16T03:31:26.738Z,1010.92
2017-10-16T03:32:28.155Z,1010.86
2017-10-16T03:33:29.578Z,1010.85
2017-10-16T03:34:31.002Z,1010.86
2017-10-16T03:35:32.412Z,1010.83
2017-10-16T03:36:33.823Z,1010.83
2017-10-16T03:37:35.239Z,1010.84
2017-10-16T03:38:36.665Z,1010.85
2017-10-16T03:39:38.077Z,1010.80
2017-10-16T03:40:39.493Z,1010.90
2017-10-16T03:41:40.911Z,1010.85
2017-10-16T03:42:42.327Z,1010.84
2017-10-16T03:43:43.746Z,1010.84
2017-10-16T03:44:45.171Z,1010.87
2017-10-16T03:45:46.582Z,1010.85
2017-10-16T03:46:48.006Z,1010.85
2017-10-16T03:47:49.424Z,1010.83
2017-10-16T03:48:50.854Z,1010.85
2017-10-16T03:49:52.286Z,1010.85
2017-10-16T03:50:53.717Z,1010.92
2017-10-16T03:51:55.146Z,1010.90
2017-10-16T03:52:56.575Z,1010.96
2017-10-16T03:53:57.993Z,1010.94
2017-10-16T03:54:59.431Z,1010.92
2017-10-16T03:56:00.852Z,1010.94
2017-10-16T03:57:02.272Z,1010.96
2017-10-16T03:58:03.690Z,1010.94
2017-10-16T03:59:05.115Z,1010.96
2017-10-16T04:00:06.543Z,1010.96
2017-10-16T04:01:07.967Z,1010.93
2017-10-16T04:02:09.391Z,1010.97
2017-10-16T04:03:10.812Z,1010.90
2017-10-16T04:04:12.234Z,1010.97
2017-10-16T04:05:13.653Z,1010.92
2017-10-16T04:06:15.132Z,1010.91
2017-10-16T04:07:16.551Z,1010.90
2017-10-16T04:08:17.974Z,1010.90
2017-10-16T04:09:19.400Z,1010.88
2017-10-16T04:10:21.605Z,1010.89
2017-10-16T04:11:23.027Z,1010.89
2017-10-16T04:12:24.443Z,1010.91
2017-10-16T04:13:30.546Z,1010.90
2017-10-16T04:14:32.041Z,1010.83
2017-10-16T04:15:33.491Z,1010.88
2017-10-16T04:16:34.915Z,1010.86
2017-10-16T04:17:36.333Z,1010.84
2017-10-16T04:18:37.755Z,1010.85
2017-10-16T04:19:39.176Z,1010.85
2017-10-16T04:20:40.591Z,1010.83
2017-10-16T04:21:42.004Z,1010.81
2017-10-16T04:22:43.430Z,1010.82
2017-10-16T04:23:44.856Z,1010.83
2017-10-16T04:24:46.281Z,1010.79
2017-10-16T04:25:47.702Z,1010.78
2017-10-16T04:26:49.115Z,1010.80
2017-10-16T04:27:50.536Z,1010.77
2017-10-16T04:28:51.961Z,1010.78
2017-10-16T04:29:53.382Z,1010.74
2017-10-16T04:30:54.809Z,1010.76
2017-10-16T04:31:56.236Z,1010.74
2017-10-16T04:32:57.660Z,1010.72
2017-10-16T04:33:59.085Z,1010.76
2017-10-16T04:35:00.500Z,1010.72
2017-10-16T04:36:01.924Z,1010.75
2017-10-16T04:37:03.343Z,1010.75
2017-10-16T04:38:04.761Z,1010.80
2017-10-16T04:39:06.178Z,1010.79
2017-10-16T04:40:07.599Z,1010.76
2017-10-16T04:41:09.108Z,1010.79
2017-10-16T04:42:10.527Z,1010.76
2017-10-16T04:43:11.952Z,1010.81
2017-10-16T04:44:13.372Z,1010.80
2017-10-16T04:45:14.802Z,1010.78
2017-10-16T04:46:16.232Z,1010.82
2017-10-16T04:47:17.647Z,1010.88
2017-10-16T04:48:19.024Z,1010.83
2017-10-16T04:49:20.441Z,1010.75
2017-10-16T04:50:21.863Z,1010.80
2017-10-16T04:51:23.282Z,1010.74
2017-10-16T04:52:24.700Z,1010.72
2017-10-16T04:53:26.123Z,1010.76
2017-10-16T04:54:27.536Z,1010.72
2017-10-16T04:55:28.960Z,1010.74
2017-10-16T04:56:30.387Z,1010.72
2017-10-16T04:57:31.801Z,1010.73
2017-10-16T04:58:33.225Z,1010.71
2017-10-16T04:59:34.643Z,1010.72
2017-10-16T05:00:36.060Z,1010.69
2017-10-16T05:01:37.517Z,1010.70
2017-10-16T05:02:38.992Z,1010.72
2017-10-16T05:03:40.415Z,1010.70
2017-10-16T05:04:41.841Z,1010.71
2017-10-16T05:05:43.268Z,1010.67
2017-10-16T05:06:44.689Z,1010.72
2017-10-16T05:07:46.105Z,1010.71
2017-10-16T05:08:47.528Z,1010.72
2017-10-16T05:09:48.986Z,1010.72
2017-10-16T05:10:50.366Z,1010.77
2017-10-16T05:11:51.786Z,1010.75
2017-10-16T05:12:53.201Z,1010.75
2017-10-16T05:13:54.627Z,1010.67
2017-10-16T05:14:56.058Z,1010.65
2017-10-16T05:15:57.479Z,1010.63
2017-10-16T05:16:58.894Z,1010.65
2017-10-16T05:18:00.309Z,1010.61
2017-10-16T05:19:01.732Z,1010.63
2017-10-16T05:20:03.160Z,1010.61
2017-10-16T05:21:04.573Z,1010.62
2017-10-16T05:22:05.994Z,1010.60
2017-10-16T05:23:07.409Z,1010.60
2017-10-16T05:24:08.836Z,1010.60
2017-10-16T05:25:10.260Z,1010.58
2017-10-16T05:26:11.673Z,1010.55
2017-10-16T05:27:13.092Z,1010.59
2017-10-16T05:28:14.512Z,1010.58
2017-10-16T05:29:15.936Z,1010.59
2017-10-16T05:30:17.360Z,1010.57
2017-10-16T05:31:18.773Z,1010.59
2017-10-16T05:32:20.244Z,1010.55
2017-10-16T05:33:21.666Z,1010.57
2017-10-16T05:34:23.184Z,1010.53
2017-10-16T05:35:24.608Z,1010.47
2017-10-16T05:36:26.033Z,1010.45
2017-10-16T05:37:27.454Z,1010.48
2017-10-16T05:38:29.731Z,1010.40
2017-10-16T05:39:31.145Z,1010.39
2017-10-16T05:40:32.567Z,1010.35
2017-10-16T05:41:33.988Z,1010.34
2017-10-16T05:42:35.402Z,1010.33
2017-10-16T05:43:36.816Z,1010.27
2017-10-16T05:44:38.235Z,1010.30
2017-10-16T05:45:39.649Z,1010.28
2017-10-16T05:46:41.064Z,1010.35
2017-10-16T05:47:42.486Z,1010.35
2017-10-16T05:48:43.909Z,1010.38
2017-10-16T05:49:45.343Z,1010.33
2017-10-16T05:50:46.756Z,1010.40
2017-10-16T05:51:48.174Z,1010.36
2017-10-16T05:52:49.602Z,1010.37
2017-10-16T05:53:51.026Z,1010.41
2017-10-16T05:54:52.456Z,1010.39
2017-10-16T05:55:53.873Z,1010.48
2017-10-16T05:56:55.291Z,1010.46
2017-10-16T05:57:56.709Z,1010.42
2017-10-16T05:58:58.136Z,1010.38
2017-10-16T05:59:59.559Z,1010.33
2017-10-16T06:01:01.068Z,1010.34
2017-10-16T06:02:02.493Z,1010.28
2017-10-16T06:03:03.916Z,1010.23
2017-10-16T06:04:05.355Z,1010.25
2017-10-16T06:05:06.770Z,1010.30
2017-10-16T06:06:08.194Z,1010.32
2017-10-16T06:07:09.620Z,1010.31
2017-10-16T06:08:11.042Z,1010.27
2017-10-16T06:09:12.465Z,1010.28
2017-10-16T06:10:13.885Z,1010.29
2017-10-16T06:11:15.315Z,1010.32
2017-10-16T06:12:16.739Z,1010.29
2017-10-16T06:13:18.166Z,1010.33
2017-10-16T06:14:19.587Z,1010.28
2017-10-16T06:15:21.007Z,1010.35
2017-10-16T06:16:22.429Z,1010.28
2017-10-16T06:17:23.846Z,1010.31
2017-10-16T06:18:25.267Z,1010.29
2017-10-16T06:19:26.699Z,1010.27
2017-10-16T06:20:28.118Z,1010.33
2017-10-16T06:21:29.540Z,1010.33
2017-10-16T06:22:30.973Z,1010.28
2017-10-16T06:23:32.399Z,1010.26
2017-10-16T06:24:33.828Z,1010.28
2017-10-16T06:25:35.260Z,1010.28
2017-10-16T06:26:36.697Z,1010.26
2017-10-16T06:27:38.117Z,1010.25
2017-10-16T06:28:39.536Z,1010.27
2017-10-16T06:29:40.960Z,1010.23
2017-10-16T06:30:42.396Z,1010.26
2017-10-16T06:31:43.800Z,1010.27
2017-10-16T06:32:45.232Z,1010.26
2017-10-16T06:33:46.659Z,1010.20
2017-10-16T06:34:48.080Z,1010.22
2017-10-16T06:35:49.501Z,1010.17
2017-10-16T06:36:50.923Z,1010.14
2017-10-16T06:37:52.349Z,1010.19
2017-10-16T06:38:53.781Z,1010.19
2017-10-16T06:39:55.204Z,1010.17
2017-10-16T06:40:56.629Z,1010.21
2017-10-16T06:41:58.048Z,1010.23
2017-10-16T06:42:59.476Z,1010.22
2017-10-16T06:44:00.897Z,1010.27
2017-10-16T06:45:02.317Z,1010.32
2017-10-16T06:46:03.738Z,1010.36
2017-10-16T06:47:05.162Z,1010.40
2017-10-16T06:48:06.582Z,1010.38
2017-10-16T06:49:08.005Z,1010.38
2017-10-16T06:50:09.442Z,1010.37
2017-10-16T06:51:10.862Z,1010.37
2017-10-16T06:52:12.286Z,1010.37
2017-10-16T06:53:13.707Z,1010.29
2017-10-16T06:54:15.129Z,1010.24
2017-10-16T06:55:16.556Z,1010.29
2017-10-16T06:56:17.981Z,1010.28
2017-10-16T06:57:19.405Z,1010.32
2017-10-16T06:58:20.828Z,1010.31
2017-10-16T06:59:22.255Z,1010.34
2017-10-16T07:00:23.682Z,1010.33
2017-10-16T07:01:25.099Z,1010.34
2017-10-16T07:02:26.521Z,1010.31
2017-10-16T07:03:27.936Z,1010.29
2017-10-16T07:04:29.355Z,1010.25
2017-10-16T07:05:30.784Z,1010.23
2017-10-16T07:06:32.205Z,1010.27
2017-10-16T07:07:33.635Z,1010.28
2017-10-16T07:08:35.052Z,1010.29
2017-10-16T07:09:36.479Z,1010.25
2017-10-16T07:10:37.992Z,1010.31
2017-10-16T07:11:39.416Z,1010.34
2017-10-16T07:12:40.848Z,1010.38
2017-10-16T07:13:42.283Z,1010.43
2017-10-16T07:14:43.704Z,1010.48
2017-10-16T07:15:45.131Z,1010.46
2017-10-16T07:16:46.551Z,1010.46
2017-10-16T07:17:47.977Z,1010.52
2017-10-16T07:18:49.395Z,1010.45
2017-10-16T07:19:50.830Z,1010.50
2017-10-16T07:20:52.260Z,1010.54
2017-10-16T07:21:53.690Z,1010.52
2017-10-16T07:22:55.105Z,1010.57
2017-10-16T07:23:56.526Z,1010.53
2017-10-16T07:24:57.944Z,1010.54
2017-10-16T07:25:59.362Z,1010.53
2017-10-16T07:27:00.789Z,1010.55
2017-10-16T07:28:02.219Z,1010.57
2017-10-16T07:29:03.662Z,1010.56
2017-10-16T07:30:05.056Z,1010.61
2017-10-16T07:31:06.484Z,1010.59
2017-10-16T07:32:07.909Z,1010.62
2017-10-16T07:33:09.337Z,1010.63
2017-10-16T07:34:10.771Z,1010.60
2017-10-16T07:35:12.185Z,1010.61
2017-10-16T07:36:13.610Z,1010.60
2017-10-16T07:37:15.027Z,1010.62
2017-10-16T07:38:16.445Z,1010.67
2017-10-16T07:39:17.868Z,1010.66
2017-10-16T07:40:19.291Z,1010.63
2017-10-16T07:41:20.725Z,1010.67
2017-10-16T07:42:22.150Z,1010.74
2017-10-16T07:43:23.630Z,1010.72
2017-10-16T07:44:25.052Z,1010.74
2017-10-16T07:45:26.480Z,1010.85
2017-10-16T07:46:27.921Z,1010.81
2017-10-16T07:47:29.350Z,1010.87
2017-10-16T07:48:30.785Z,1010.96
2017-10-16T07:49:32.216Z,1010.98
2017-10-16T07:50:33.641Z,1011.03
2017-10-16T07:51:35.063Z,1011.10
2017-10-16T07:52:36.489Z,1011.11
2017-10-16T07:53:37.906Z,1011.19
2017-10-16T07:54:39.343Z,1011.27
2017-10-16T07:55:40.766Z,1011.27
2017-10-16T07:56:42.208Z,1011.27
2017-10-16T07:57:43.631Z,1011.28
2017-10-16T07:58:45.057Z,1011.27
2017-10-16T07:59:46.481Z,1011.29
2017-10-16T08:00:47.910Z,1011.29
2017-10-16T08:01:49.353Z,1011.26
2017-10-16T08:02:50.783Z,1011.31
2017-10-16T08:03:52.203Z,1011.29
2017-10-16T08:04:53.624Z,1011.29
2017-10-16T08:05:55.041Z,1011.28
2017-10-16T08:06:56.463Z,1011.31
2017-10-16T08:07:57.906Z,1011.32
2017-10-16T08:08:59.316Z,1011.34
2017-10-16T08:10:00.749Z,1011.33
2017-10-16T08:11:02.217Z,1011.37
2017-10-16T08:12:03.642Z,1011.32
2017-10-16T08:13:05.063Z,1011.34
2017-10-16T08:14:06.498Z,1011.36
2017-10-16T08:15:07.927Z,1011.41
2017-10-16T08:16:09.311Z,1011.40
2017-10-16T08:17:10.735Z,1011.47
2017-10-16T08:18:12.163Z,1011.48
2017-10-16T08:19:13.602Z,1011.47
2017-10-16T08:20:15.030Z,1011.49
2017-10-16T08:21:16.460Z,1011.51
2017-10-16T08:22:17.881Z,1011.51
2017-10-16T08:23:19.357Z,1011.55
2017-10-16T08:24:20.791Z,1011.52
2017-10-16T08:25:22.284Z,1011.59
2017-10-16T08:26:23.717Z,1011.55
2017-10-16T08:27:25.148Z,1011.60
2017-10-16T08:28:26.569Z,1011.58
2017-10-16T08:29:27.995Z,1011.61
2017-10-16T08:30:29.419Z,1011.62
2017-10-16T08:31:30.846Z,1011.58
2017-10-16T08:32:32.276Z,1011.65
2017-10-16T08:33:33.698Z,1011.62
2017-10-16T08:34:35.132Z,1011.62
2017-10-16T08:35:36.555Z,1011.71
2017-10-16T08:36:37.985Z,1011.69
2017-10-16T08:37:39.408Z,1011.65
2017-10-16T08:38:40.832Z,1011.63
2017-10-16T08:39:42.270Z,1011.66
2017-10-16T08:40:43.690Z,1011.65
2017-10-16T08:41:45.121Z,1011.66
2017-10-16T08:42:46.547Z,1011.63
2017-10-16T08:43:47.966Z,1011.64
2017-10-16T08:44:49.391Z,1011.69
2017-10-16T08:45:50.815Z,1011.67
2017-10-16T08:46:52.242Z,1011.71
2017-10-16T08:47:53.673Z,1011.71
2017-10-16T08:48:55.107Z,1011.72
2017-10-16T08:49:56.538Z,1011.73
2017-10-16T08:50:57.964Z,1011.73
2017-10-16T08:51:59.384Z,1011.74
2017-10-16T08:53:00.806Z,1011.74
2017-10-16T08:54:02.238Z,1011.74
2017-10-16T08:55:03.663Z,1011.75
2017-10-16T08:56:05.098Z,1011.79
2017-10-16T08:57:06.531Z,1011.80
2017-10-16T08:58:07.958Z,1011.86
2017-10-16T08:59:09.389Z,1011.84
2017-10-16T09:00:10.823Z,1011.89
2017-10-16T09:01:12.249Z,1011.86
2017-10-16T09:02:13.683Z,1011.88
2017-10-16T09:03:15.115Z,1011.89
2017-10-16T09:04:16.558Z,1011.92
2017-10-16T09:05:17.963Z,1011.88
2017-10-16T09:06:19.386Z,1011.87
2017-10-16T09:07:20.811Z,1011.86
2017-10-16T09:08:22.237Z,1011.87
2017-10-16T09:09:23.669Z,1011.94
2017-10-16T09:10:25.709Z,1011.87
2017-10-16T09:11:27.129Z,1011.90
2017-10-16T09:12:28.558Z,1011.92
2017-10-16T09:13:30.001Z,1011.90
2017-10-16T09:14:31.432Z,1011.91
2017-10-16T09:15:32.867Z,1011.89
2017-10-16T09:16:34.292Z,1011.91
2017-10-16T09:17:35.720Z,1011.92
2017-10-16T09:18:37.149Z,1011.94
2017-10-16T09:19:38.580Z,1011.96
2017-10-16T09:20:40.014Z,1011.93
2017-10-16T09:21:41.445Z,1011.94
2017-10-16T09:22:42.879Z,1011.97
2017-10-16T09:23:44.304Z,1011.99
2017-10-16T09:24:45.728Z,1011.99
2017-10-16T09:25:47.162Z,1012.01
2017-10-16T09:26:48.599Z,1012.04
2017-10-16T09:27:50.771Z,1012.05
2017-10-16T09:28:52.298Z,1012.09
2017-10-16T09:29:53.722Z,1012.06
2017-10-16T09:30:55.148Z,1012.03
2017-10-16T09:31:56.591Z,1012.02
2017-10-16T09:32:58.003Z,1012.03
2017-10-16T09:33:59.429Z,1012.07
2017-10-16T09:35:00.860Z,1012.02
2017-10-16T09:36:02.288Z,1012.07
2017-10-16T09:37:03.716Z,1012.08
2017-10-16T09:38:05.144Z,1012.09
2017-10-16T09:39:06.568Z,1012.09
2017-10-16T09:40:07.991Z,1012.08
2017-10-16T09:41:09.419Z,1012.07
2017-10-16T09:42:10.852Z,1012.10
2017-10-16T09:43:12.283Z,1012.08
2017-10-16T09:44:13.714Z,1012.06
2017-10-16T09:45:15.138Z,1012.01
2017-10-16T09:46:16.568Z,1012.02
2017-10-16T09:47:17.989Z,1012.05
2017-10-16T09:48:19.432Z,1012.01
2017-10-16T09:49:20.865Z,1012.02
2017-10-16T09:50:22.300Z,1012.01
2017-10-16T09:51:23.730Z,1012.07
2017-10-16T09:52:25.164Z,1012.09
2017-10-16T09:53:26.596Z,1012.09
2017-10-16T09:54:28.027Z,1012.12
2017-10-16T09:55:29.455Z,1012.09
2017-10-16T09:56:31.825Z,1012.05
2017-10-16T09:57:33.259Z,1012.05
2017-10-16T09:58:34.693Z,1012.03
2017-10-16T09:59:36.123Z,1012.11
2017-10-16T10:00:37.558Z,1012.08
2017-10-16T10:01:38.992Z,1012.14
2017-10-16T10:02:40.428Z,1012.12
2017-10-16T10:03:41.856Z,1012.11
2017-10-16T10:04:43.291Z,1012.13
2017-10-16T10:05:44.719Z,1012.17
2017-10-16T10:06:46.160Z,1012.18
2017-10-16T10:07:47.587Z,1012.13
2017-10-16T10:08:49.013Z,1012.15
2017-10-16T10:09:50.441Z,1012.19
2017-10-16T10:10:51.871Z,1012.11
2017-10-16T10:11:53.302Z,1012.15
2017-10-16T10:12:54.730Z,1012.16
2017-10-16T10:13:56.162Z,1012.13
2017-10-16T10:14:57.591Z,1012.12
2017-10-16T10:15:59.017Z,1012.08
2017-10-16T10:17:00.449Z,1012.06
2017-10-16T10:18:01.874Z,1012.07
2017-10-16T10:19:03.319Z,1012.11
2017-10-16T10:20:04.755Z,1012.09
2017-10-16T10:21:06.190Z,1012.08
2017-10-16T10:22:07.621Z,1012.10
2017-10-16T10:23:09.051Z,1012.09
2017-10-16T10:24:10.480Z,1012.12
2017-10-16T10:25:11.917Z,1012.07
2017-10-16T10:26:13.345Z,1012.15
2017-10-16T10:27:14.797Z,1012.17
2017-10-16T10:28:16.222Z,1012.18
2017-10-16T10:29:17.649Z,1012.13
2017-10-16T10:30:19.077Z,1012.14
2017-10-16T10:31:20.501Z,1012.11
2017-10-16T10:32:21.930Z,1012.13
2017-10-16T10:33:23.365Z,1012.17
2017-10-16T10:34:24.788Z,1012.15
2017-10-16T10:35:26.231Z,1012.20
2017-10-16T10:36:27.663Z,1012.23
2017-10-16T10:37:29.129Z,1012.21
2017-10-16T10:38:30.564Z,1012.18
2017-10-16T10:39:31.995Z,1012.20
2017-10-16T10:40:33.425Z,1012.22
2017-10-16T10:41:34.853Z,1012.20
2017-10-16T10:42:36.280Z,1012.25
2017-10-16T10:43:37.719Z,1012.26
2017-10-16T10:44:39.142Z,1012.27
2017-10-16T10:45:40.583Z,1012.23
2017-10-16T10:46:42.011Z,1012.26
2017-10-16T10:47:43.444Z,1012.22
2017-10-16T10:48:44.877Z,1012.25
2017-10-16T10:49:46.309Z,1012.27
2017-10-16T10:50:47.741Z,1012.35
2017-10-16T10:51:49.170Z,1012.32
2017-10-16T10:52:50.598Z,1012.29
2017-10-16T10:53:52.028Z,1012.31
2017-10-16T10:54:53.465Z,1012.33
2017-10-16T10:55:54.887Z,1012.27
2017-10-16T10:56:56.317Z,1012.30
2017-10-16T10:57:57.745Z,1012.26
2017-10-16T10:58:59.183Z,1012.26
2017-10-16T11:00:00.623Z,1012.29
2017-10-16T11:01:02.055Z,1012.21
2017-10-16T11:02:03.483Z,1012.24
2017-10-16T11:03:04.912Z,1012.25
2017-10-16T11:04:06.339Z,1012.25
2017-10-16T11:05:07.767Z,1012.22
2017-10-16T11:06:09.198Z,1012.26
2017-10-16T11:07:10.619Z,1012.27
2017-10-16T11:08:12.049Z,1012.26
2017-10-16T11:09:13.493Z,1012.24
2017-10-16T11:10:14.939Z,1012.28
2017-10-16T11:11:16.373Z,1012.25
2017-10-16T11:12:17.812Z,1012.29
2017-10-16T11:13:19.236Z,1012.25
2017-10-16T11:14:20.676Z,1012.24
2017-10-16T11:15:22.106Z,1012.22
2017-10-16T11:16:23.542Z,1012.24
2017-10-16T11:17:25.590Z,1012.22
2017-10-16T11:18:26.349Z,1012.23
2017-10-16T11:19:27.782Z,1012.23
2017-10-16T11:20:29.206Z,1012.21
2017-10-16T11:21:30.638Z,1012.19
2017-10-16T11:22:32.076Z,1012.19
2017-10-16T11:23:33.508Z,1012.19
2017-10-16T11:24:35.058Z,1012.17
2017-10-16T11:25:36.495Z,1012.21
2017-10-16T11:26:37.940Z,1012.18
2017-10-16T11:27:39.372Z,1012.16
2017-10-16T11:28:40.806Z,1012.17
2017-10-16T11:29:42.236Z,1012.17
2017-10-16T11:30:43.676Z,1012.17
2017-10-16T11:31:45.121Z,1012.18
2017-10-16T11:32:46.551Z,1012.15
2017-10-16T11:33:47.985Z,1012.12
2017-10-16T11:34:49.456Z,1012.17
2017-10-16T11:35:50.882Z,1012.11
2017-10-16T11:36:52.321Z,1012.11
2017-10-16T11:37:53.748Z,1012.08
2017-10-16T11:38:55.183Z,1012.08
2017-10-16T11:39:56.616Z,1012.07
2017-10-16T11:40:58.041Z,1012.05
2017-10-16T11:41:59.479Z,1012.09
2017-10-16T11:43:00.914Z,1012.06
2017-10-16T11:44:02.362Z,1012.07
2017-10-16T11:45:03.790Z,1012.07
2017-10-16T11:46:05.221Z,1012.11
2017-10-16T11:47:06.646Z,1012.09
2017-10-16T11:48:08.080Z,1012.12
2017-10-16T11:49:09.508Z,1012.10
2017-10-16T11:50:10.943Z,1012.10
2017-10-16T11:51:12.373Z,1012.13
2017-10-16T11:52:13.828Z,1012.12
2017-10-16T11:53:15.261Z,1012.15
2017-10-16T11:54:16.693Z,1012.12
2017-10-16T11:55:18.123Z,1012.24
2017-10-16T11:56:19.555Z,1012.24
2017-10-16T11:57:20.990Z,1012.32
2017-10-16T11:58:22.421Z,1012.35
2017-10-16T11:59:23.872Z,1012.51
2017-10-16T12:00:25.969Z,1012.70
2017-10-16T12:01:27.401Z,1012.81
2017-10-16T12:02:28.830Z,1012.84
2017-10-16T12:03:30.379Z,1012.89
2017-10-16T12:04:31.813Z,1012.90
2017-10-16T12:05:33.249Z,1012.94
2017-10-16T12:06:34.680Z,1012.91
2017-10-16T12:07:36.109Z,1012.93
2017-10-16T12:08:37.550Z,1012.90
2017-10-16T12:09:38.997Z,1012.91
2017-10-16T12:10:40.437Z,1012.90
2017-10-16T12:11:41.864Z,1012.85
2017-10-16T12:12:43.300Z,1012.85
2017-10-16T12:13:44.732Z,1012.87
2017-10-16T12:14:46.173Z,1012.87
2017-10-16T12:15:47.619Z,1012.88
2017-10-16T12:16:49.055Z,1012.90
2017-10-16T12:17:50.514Z,1012.89
2017-10-16T12:18:51.979Z,1012.89
2017-10-16T12:19:53.410Z,1012.85
2017-10-16T12:20:54.850Z,1012.91
2017-10-16T12:21:56.284Z,1012.90
2017-10-16T12:22:57.727Z,1012.86